Flight Track Log - Related Links

Times and Time Zones

All times are in EDT time to prevent confusion due to time zone crossing. See the SWA569 flight status page for this flight to view local times or setup timezone preferences in your user account.

Time Position Orientation Groundspeed Altitude Reporting Facility
EDT Latitude Longitude Course Direction KTS MPH feet Rate Location/Type
Sun 12:37:45 PM 39.9167 -104.6667 97° East 182 209 6,700  Level Denver TRACON
Sun 12:38:46 PM 39.8833 -104.6000 123° Southeast 266 306 8,400 1,537 Climbing Denver TRACON
Sun 12:39:46 PM 39.8500 -104.5167 117° Southeast 312 359 9,800 1,600 Climbing Denver TRACON
Sun 12:40:46 PM 39.8167 -104.3833 108° East 373 429 11,600 3,040 Climbing Denver TRACON
Sun 12:42:16 PM 39.7925 -104.1922 99° East 356 410 17,400 3,395 Climbing Denver Center
Sun 12:43:00 PM 39.7583 -103.8990 97° East  Level FlightAware Approximate
Sun 12:43:18 PM 39.7792 -104.0631 98° East 360 414 20,200  Level Denver Center
Sun 12:44:20 PM 39.7628 -103.9203 98° East 363 418 22,700 2,226 Climbing Denver Center
Sun 12:45:22 PM 39.7439 -103.7750 100° East 395 455 24,800 1,887 Climbing Denver Center
Sun 12:46:24 PM 39.7325 -103.6267 96° East 409 471 26,600 1,694 Climbing Denver Center
Sun 12:47:26 PM 39.7208 -103.4747 96° East 420 483 28,300 1,742 Climbing Denver Center
Sun 12:48:28 PM 39.7078 -103.3169 96° East 437 503 30,200 1,728 Climbing Denver Center
Sun 12:49:31 PM 39.6956 -103.1617 96° East 436 502 31,900 1,632 Climbing Denver Center
Sun 12:50:33 PM 39.6817 -102.9725 95° East 436 502 33,600 1,500 Climbing Denver Center
Sun 12:51:35 PM 39.6661 -102.8133 97° East 442 509 35,000 1,452 Climbing Denver Center
Sun 12:52:37 PM 39.6514 -102.6472 97° East 435 501 36,600 919 Climbing Denver Center
Sun 12:53:39 PM 39.6386 -102.4983 96° East 435 501 36,900 145 Climbing Denver Center
Sun 12:55:23 PM 39.6122 -102.2136 97° East 441 507 37,000 44 Climbing Kansas City Center
Sun 12:55:55 PM 39.6086 -102.1678 96° East 445 512 37,000  Level Denver Center
Sun 12:56:58 PM 39.5892 -101.9636 97° East 446 513 37,000  Level Denver Center
Sun 12:58:00 PM 39.5786 -101.8108 95° East 446 513 37,000  Level Denver Center
Sun 12:59:02 PM 39.5642 -101.6339 96° East 445 512 37,000  Level Denver Center
Sun 01:00:04 PM 39.5514 -101.4819 96° East 444 511 37,000  Level Denver Center
Sun 01:01:06 PM 39.5306 -101.3086 99° East 442 509 37,000  Level Denver Center
Sun 01:02:08 PM 39.5086 -101.1594 101° East 442 509 37,000  Level Denver Center
Sun 01:03:10 PM 39.4825 -100.9811 101° East 449 517 37,000  Level Denver Center
Sun 01:04:12 PM 39.4597 -100.8286 101° East 456 525 37,000  Level Denver Center
Sun 01:05:14 PM 39.4328 -100.6564 101° East 443 510 37,000  Level Denver Center
Sun 01:06:17 PM 39.4100 -100.5106 101° East 438 504 37,000  Level Denver Center
Sun 01:07:19 PM 39.3839 -100.3400 101° East 438 504 37,000  Level Denver Center
Sun 01:08:21 PM 39.3611 -100.1958 102° East 430 495 37,000  Level Denver Center
Sun 01:09:23 PM 39.3344 -100.0264 101° East 433 498 37,000  Level Denver Center
Sun 01:10:25 PM 39.3117 -99.8825 102° East 431 496 37,000  Level Denver Center
Sun 01:11:27 PM 39.2858 -99.7189 101° East 424 488 37,000  Level Denver Center
Sun 01:12:29 PM 39.2625 -99.5772 102° East 421 484 37,000  Level Denver Center
Sun 01:13:31 PM 39.2347 -99.4106 102° East 424 488 37,000  Level Denver Center
Sun 01:14:45 PM 39.2103 -99.2656 102° East 427 491 37,000  Level Denver Center
Sun 01:15:50 PM 39.1783 -99.0661 102° East 428 493 37,000  Level Kansas City Center
Sun 01:16:51 PM 39.1525 -98.9161 102° East 429 494 37,000  Level Kansas City Center
Sun 01:17:53 PM 39.1275 -98.7658 102° East 429 494 37,000  Level Kansas City Center
Sun 01:18:54 PM 39.1017 -98.6156 102° East 429 494 37,000  Level Kansas City Center
Sun 01:19:56 PM 39.0753 -98.4667 103° East 429 494 37,000  Level Kansas City Center
Sun 01:20:57 PM 39.0497 -98.3158 102° East 430 495 37,000  Level Kansas City Center
Sun 01:21:59 PM 39.0231 -98.1681 103° East 428 493 37,000  Level Kansas City Center
Sun 01:23:00 PM 38.9978 -98.0164 102° East 428 493 37,000  Level Kansas City Center
Sun 01:24:02 PM 38.9661 -97.8472 103° East 424 488 37,000  Level Kansas City Center
Sun 01:25:03 PM 38.9142 -97.7292 119° Southeast 405 466 37,000  Level Kansas City Center
Sun 01:26:05 PM 38.8322 -97.6097 131° Southeast 402 463 37,000  Level Kansas City Center
Sun 01:27:06 PM 38.7650 -97.5081 130° Southeast 397 457 37,000 98 Level Kansas City Center
Sun 01:28:08 PM 38.6936 -97.4022 131° Southeast 395 455 37,200 439 Climbing Kansas City Center
Sun 01:29:09 PM 38.6214 -97.2958 131° Southeast 395 455 37,900 689 Climbing Kansas City Center
Sun 01:30:10 PM 38.5478 -97.1869 131° Southeast 400 460 38,600 537 Climbing Kansas City Center
Sun 01:31:12 PM 38.4725 -97.0769 131° Southeast 408 470 39,000 195 Climbing Kansas City Center
Sun 01:32:13 PM 38.3967 -96.9672 131° Southeast 409 471 39,000  Level Kansas City Center
Sun 01:33:15 PM 38.3214 -96.8564 131° Southeast 411 473 39,000  Level Kansas City Center
Sun 01:34:16 PM 38.2311 -96.7250 131° Southeast 411 473 39,000  Level Kansas City Center
Sun 01:35:18 PM 38.1567 -96.6178 131° Southeast 410 472 39,000  Level Kansas City Center
Sun 01:36:19 PM 38.0811 -96.5092 131° Southeast 409 471 39,000  Level Kansas City Center
Sun 01:37:21 PM 38.0056 -96.3989 131° Southeast 410 472 39,000  Level Kansas City Center
Sun 01:38:22 PM 37.9283 -96.2875 131° Southeast 416 479 39,000  Level Kansas City Center
Sun 01:39:24 PM 37.8475 -96.1794 133° Southeast 420 483 39,000  Level Kansas City Center
Sun 01:40:25 PM 37.7631 -96.0703 134° Southeast 414 476 39,000  Level Kansas City Center
Sun 01:41:27 PM 37.6817 -95.9589 133° Southeast 425 489 39,000  Level Kansas City Center
Sun 01:42:28 PM 37.6014 -95.8489 133° Southeast 427 491 39,000  Level Kansas City Center
Sun 01:43:30 PM 37.5194 -95.7450 135° Southeast 422 486 39,000  Level Kansas City Center
Sun 01:44:31 PM 37.4428 -95.6011 124° Southeast 412 474 39,000  Level Kansas City Center
Sun 01:45:33 PM 37.3794 -95.4719 122° Southeast 423 487 39,000  Level Kansas City Center
Sun 01:46:34 PM 37.3164 -95.3542 124° Southeast 414 476 39,000  Level Kansas City Center
Sun 01:47:36 PM 37.2572 -95.2289 121° Southeast 411 473 39,000  Level Kansas City Center
Sun 01:48:37 PM 37.1989 -95.1053 121° Southeast 411 473 39,000  Level Kansas City Center
Sun 01:49:39 PM 37.1394 -94.9833 121° Southeast 411 473 39,000  Level Kansas City Center
Sun 01:50:40 PM 37.0814 -94.8589 120° Southeast 411 473 39,000  Level Kansas City Center
Sun 01:51:42 PM 37.0261 -94.7358 119° Southeast 408 470 39,000  Level Kansas City Center
Sun 01:52:43 PM 36.9436 -94.6431 138° Southeast 410 472 39,000  Level Kansas City Center
Sun 01:53:20 PM 36.8778 -94.6336 173° South 406 467 39,000  Level Kansas City Center
Sun 01:54:21 PM 36.7664 -94.6397 183° South 400 460 39,000  Level Kansas City Center
Sun 01:55:23 PM 36.6558 -94.6422 181° South 398 458 39,000  Level Kansas City Center
Sun 01:56:12 PM 36.5447 -94.6431 180° South 397 457 39,000  Level Kansas City Center
Sun 01:56:24 PM 36.5222 -94.6428 179° South 397 457 39,000  Level Kansas City Center
Sun 01:57:13 PM 36.4336 -94.6378 177° South 397 457 39,000  Level Kansas City Center
Sun 01:57:26 PM 36.4117 -94.6367 178° South 397 457 39,000  Level Kansas City Center
Sun 01:58:15 PM 36.3208 -94.6319 178° South 397 457 39,000  Level Kansas City Center
Sun 01:58:27 PM 36.2989 -94.6306 177° South 397 457 39,000  Level Kansas City Center
Sun 01:59:16 PM 36.2100 -94.6269 178° South 397 457 39,000  Level Kansas City Center
Sun 01:59:29 PM 36.1878 -94.6258 178° South 397 457 39,000  Level Kansas City Center
Sun 02:00:18 PM 36.0975 -94.6167 175° South 398 458 39,000  Level Kansas City Center
Sun 02:00:30 PM 36.0753 -94.6119 170° South 400 460 39,000  Level Kansas City Center
Sun 02:01:19 PM 35.9872 -94.5933 170° South 400 460 39,000  Level Kansas City Center
Sun 02:01:31 PM 35.9672 -94.5806 153° Southeast 402 463 39,000  Level Kansas City Center
Sun 02:02:21 PM 35.8856 -94.5286 153° Southeast 409 471 39,000  Level Kansas City Center
Sun 02:02:33 PM 35.8661 -94.5144 149° Southeast 409 471 39,000  Level Kansas City Center
Sun 02:03:22 PM 35.7886 -94.4531 147° Southeast 413 475 39,000  Level Kansas City Center
Sun 02:03:34 PM 35.7689 -94.4383 149° Southeast 413 475 39,000  Level Kansas City Center
Sun 02:04:23 PM 35.6936 -94.3825 149° Southeast 413 475 39,000  Level Kansas City Center
Sun 02:04:36 PM 35.6747 -94.3672 147° Southeast 413 475 39,000  Level Kansas City Center
Sun 02:06:00 PM 35.5608 -94.2269 135° Southeast 423 487 39,000  Level Memphis Center
Sun 02:07:02 PM 35.4872 -94.0756 121° Southeast 428 493 39,000  Level Memphis Center
Sun 02:08:03 PM 35.4672 -93.9272 99° East 451 519 39,000  Level Memphis Center
Sun 02:09:05 PM 35.4800 -93.7728 84° East 458 527 39,000  Level Memphis Center
Sun 02:10:06 PM 35.4922 -93.6169 84° East 458 527 39,000  Level Memphis Center
Sun 02:11:08 PM 35.5039 -93.4628 85° East 458 527 39,000  Level Memphis Center
Sun 02:12:09 PM 35.5153 -93.3094 85° East 454 522 39,000  Level Memphis Center
Sun 02:13:11 PM 35.5258 -93.1575 85° East 452 520 39,000  Level Memphis Center
Sun 02:14:12 PM 35.5378 -93.0050 84° East 451 519 39,000  Level Memphis Center
Sun 02:15:14 PM 35.5500 -92.8503 84° East 451 519 39,000  Level Memphis Center
Sun 02:16:15 PM 35.5722 -92.6892 80° East 452 520 39,000  Level Memphis Center
Sun 02:17:17 PM 35.5819 -92.5347 86° East 452 520 39,000  Level Memphis Center
Sun 02:18:18 PM 35.5958 -92.3475 85° East 453 521 39,000  Level Memphis Center
Sun 02:19:20 PM 35.6044 -92.1919 86° East 454 522 39,000  Level Memphis Center
Sun 02:20:22 PM 35.6150 -92.0386 85° East 454 522 39,000  Level Memphis Center
Sun 02:21:23 PM 35.6236 -91.8864 86° East 452 520 39,000  Level Memphis Center
Sun 02:22:25 PM 35.6331 -91.7358 86° East 449 517 39,000  Level Memphis Center
Sun 02:23:26 PM 35.6419 -91.5897 86° East 434 499 39,000  Level Memphis Center
Sun 02:24:28 PM 35.6497 -91.4431 86° East 433 498 39,000  Level Memphis Center
Sun 02:25:30 PM 35.6592 -91.2847 86° East 433 498 39,000  Level Memphis Center
Sun 02:28:34 PM 35.6828 -90.8472 86° East 428 493 39,000 -98 Level Memphis Center
Sun 02:29:36 PM 35.6911 -90.6767 87° East 432 497 38,600 -683 Descending Memphis Center
Sun 02:30:37 PM 35.6994 -90.5286 86° East 436 502 37,600 -913 Descending Memphis Center
Sun 02:32:40 PM 35.7131 -90.2300 81° East 436 502 35,800 -843 Descending Memphis Center
Sun 02:33:42 PM 35.7200 -90.0739 87° East 452 520 35,000 -390 Descending Memphis Center
Sun 02:34:00 PM 35.6968 -90.0900 86° East  Level FlightAware Approximate
Sun 02:34:43 PM 35.7289 -89.8822 87° East 464 534 35,000  Level Memphis Center
Sun 02:35:45 PM 35.7358 -89.7231 87° East 465 535 35,000  Level Memphis Center
Sun 02:36:47 PM 35.7419 -89.5625 87° East 467 537 35,000  Level Memphis Center
Sun 02:37:48 PM 35.7489 -89.4008 87° East 472 543 35,000 -146 Level Memphis Center
Sun 02:38:50 PM 35.7547 -89.2378 87° East 475 547 34,700 -634 Descending Memphis Center
Sun 02:39:51 PM 35.7614 -89.0797 87° East 473 544 33,700 -976 Descending Memphis Center
Sun 02:40:53 PM 35.7664 -88.9214 88° East 471 542 32,700 -1,073 Descending Memphis Center
Sun 02:41:54 PM 35.7736 -88.7331 87° East 465 535 31,500 -1,415 Descending Memphis Center
Sun 02:42:56 PM 35.7794 -88.5794 87° East 458 527 29,800 -1,805 Descending Memphis Center
Sun 02:43:57 PM 35.7831 -88.4286 88° East 450 518 27,800 -1,902 Descending Memphis Center
Sun 02:44:59 PM 35.7878 -88.2792 88° East 444 511 25,900 -1,902 Descending Memphis Center
Sun 02:46:00 PM 35.7928 -88.1283 88° East 429 494 23,900 -1,918 Descending Memphis Center
Sun 02:47:01 PM 35.7969 -87.9836 88° East 425 489 22,000 -1,805 Descending Memphis Center
Sun 02:48:03 PM 35.8008 -87.8422 88° East 414 476 20,200 -1,805 Descending Memphis Center
Sun 02:49:04 PM 35.8053 -87.7064 88° East 401 461 18,300 -1,756 Descending Memphis Center
Sun 02:50:06 PM 35.8111 -87.5783 87° East 380 437 16,600 -1,659 Descending Memphis Center
Sun 02:51:07 PM 35.8094 -87.4572 91° East 362 417 14,900 -1,463 Descending Memphis Center
Sun 02:52:09 PM 35.7914 -87.3444 101° East 339 390 13,600 -1,220 Descending Memphis Center
Sun 02:53:10 PM 35.8467 -87.2339 58° Northeast 335 386 12,400 -1,220 Descending Memphis Center
Sun 02:54:12 PM 35.9119 -87.1567 44° Northeast 324 373 11,100 -1,268 Descending Memphis Center
Sun 02:55:13 PM 35.9639 -87.0708 53° Northeast 315 362 9,800 -1,366 Descending Memphis Center
Sun 02:56:15 PM 36.0119 -86.9856 55° Northeast 306 352 8,300 -1,659 Descending Memphis Center
Sun 02:57:16 PM 36.0781 -86.9222 38° Northeast 300 345 6,400 -1,610 Descending Memphis Center
Sun 02:58:18 PM 36.1458 -86.8628 35° Northeast 300 345 5,000 -878 Descending Memphis Center
Sun 02:59:19 PM 36.2111 -86.8058 35° Northeast 291 335 4,600 -443 Descending Memphis Center
Sun 03:00:20 PM 36.2281 -86.7386 73° East 225 259 4,100 -829 Descending Memphis Center
Sun 03:01:22 PM 36.2189 -86.6769 100° East 188 216 2,900 -1,122 Descending Memphis Center
Sun 03:02:23 PM 36.1933 -86.6358 128° Southeast 151 174 1,800 -927 Descending Memphis Center
Sun 03:03:25 PM 36.1586 -86.6486 197° South 135 155 1,000 -585 Descending Memphis Center
Sun 03:04:26 PM 36.1275 -86.6614 198° South 129 148 600 -393 Descending Memphis Center
Sun 03:06:00 PM 36.1167 -86.6667 155° Southeast  Level FlightAware Approximate
Sun 03:13:00 PM 36.1245 -86.6782 155° Southeast  Level Estimated
Sun 03:14:00 PM 36.1245 -86.6782 130° Southeast  Level Estimated
Sun 03:15:00 PM 36.1245 -86.6782 155° Southeast  Level Estimated
Sun 03:16:00 PM 36.1245 -86.6782 130° Southeast  Level Estimated
Sun 03:17:00 PM 36.1245 -86.6782 155° Southeast  Level Estimated
Sun 03:18:00 PM 36.1245 -86.6782 130° Southeast  Level Estimated

Login

Don't have an account? Register now (free) for customized features, flight alerts, and more!